Time;durP1;ratioP1;P1;durP2;ratioP2;P2;SDS_P1;SDS_P2;PMS_P1;PMS_P2;Temp;Humidity;BMP_temperature;BMP_pressure;BME280_temperature;BME280_humidity;BME280_pressure;Samples;Min_cycle;Max_cycle;Signal;HPM_P1;HPM_P2
2024/02/27 00:01:48;;;;;;;7.53;6.40;;;7.20;99.90;;;7.86;100.00;96948.19;10344846;28;20714;-67
2024/02/27 00:06:51;;;;;;;7.30;6.53;;;7.20;99.90;;;7.72;100.00;96940.63;10347097;28;20238;-68
2024/02/27 00:11:56;;;;;;;7.43;6.20;;;7.10;99.90;;;7.65;100.00;96962.34;10344988;28;20233;-68
2024/02/27 00:16:59;;;;;;;8.20;6.87;;;7.00;99.90;;;7.73;100.00;96957.66;10344507;28;20709;-68
2024/02/27 00:22:03;;;;;;;5.60;5.10;;;7.10;99.90;;;7.71;100.00;96961.78;10344976;28;20248;-71
2024/02/27 00:27:07;;;;;;;6.10;5.60;;;7.10;99.90;;;7.75;100.00;96974.72;10343590;28;20602;-68
2024/02/27 00:32:10;;;;;;;5.83;5.33;;;7.10;99.90;;;7.73;100.00;96975.47;10345196;28;20234;-68
2024/02/27 00:37:13;;;;;;;4.93;4.50;;;7.10;99.90;;;7.90;100.00;96979.78;10344524;28;20222;-68
2024/02/27 00:42:18;;;;;;;5.83;5.23;;;7.20;99.90;;;7.73;100.00;96985.66;10341710;28;20226;-68
2024/02/27 00:47:21;;;;;;;5.33;4.33;;;7.20;99.90;;;7.83;100.00;96998.03;10347056;28;20756;-68
2024/02/27 00:52:24;;;;;;;4.80;4.43;;;7.30;99.90;;;8.20;98.86;97010.16;10344347;28;20265;-68
2024/02/27 00:57:30;;;;;;;4.23;3.93;;;7.50;99.90;;;7.94;100.00;97019.84;10346077;28;20305;-69
2024/02/27 01:02:33;;;;;;;4.17;3.77;;;7.40;99.90;;;8.05;100.00;97026.38;10343435;28;20686;-68
2024/02/27 01:07:37;;;;;;;4.03;3.70;;;7.50;99.90;;;7.98;100.00;97026.84;10348764;28;20229;-67
2024/02/27 01:12:41;;;;;;;4.20;3.90;;;7.50;99.90;;;7.95;100.00;97019.03;10341666;28;20226;-68
2024/02/27 01:17:44;;;;;;;4.20;3.90;;;7.40;99.90;;;7.98;100.00;97019.19;10346514;28;20349;-67
2024/02/27 01:22:48;;;;;;;4.60;3.97;;;7.40;99.90;;;8.06;100.00;97017.06;10345015;28;20254;-68
2024/02/27 01:27:52;;;;;;;4.20;3.90;;;7.50;99.90;;;8.12;100.00;97028.44;10343403;28;20740;-68
2024/02/27 01:32:55;;;;;;;5.47;5.07;;;7.50;99.90;;;8.20;99.27;97016.13;10344734;28;20245;-68
2024/02/27 01:37:59;;;;;;;5.47;4.93;;;7.50;99.90;;;8.09;99.50;97018.09;10343870;28;20233;-67
2024/02/27 01:43:04;;;;;;;5.67;5.17;;;7.40;99.90;;;8.07;100.00;97004.44;10342996;28;20245;-68
2024/02/27 01:48:08;;;;;;;5.40;5.00;;;7.50;99.90;;;7.95;99.92;96996.13;10344287;28;20318;-68
2024/02/27 01:53:12;;;;;;;6.30;5.70;;;7.40;99.90;;;7.96;100.00;96997.91;10347274;28;20230;-68
2024/02/27 01:58:17;;;;;;;7.23;6.53;;;7.40;99.90;;;7.92;100.00;96995.09;10355453;28;20280;-68
2024/02/27 02:03:24;;;;;;;7.67;6.83;;;7.30;99.90;;;7.93;100.00;96989.25;10344558;28;20230;-69
2024/02/27 02:08:29;;;;;;;7.87;6.73;;;7.30;99.90;;;7.90;99.38;96990.81;10343921;28;20354;-68
2024/02/27 02:13:33;;;;;;;8.57;7.67;;;7.30;99.90;;;7.97;99.02;96993.69;10338253;28;20252;-68
2024/02/27 02:18:36;;;;;;;7.93;7.17;;;7.30;99.90;;;7.85;97.59;96991.38;10341535;28;20231;-68
2024/02/27 02:23:41;;;;;;;8.23;7.43;;;7.20;99.90;;;7.86;98.32;96999.06;10340853;28;20238;-68
2024/02/27 02:28:44;;;;;;;8.63;7.73;;;7.20;99.90;;;7.93;95.69;97013.03;10340191;28;20233;-68
2024/02/27 02:33:47;;;;;;;7.93;7.27;;;7.20;99.90;;;7.83;95.81;97018.41;10347840;28;20705;-68
2024/02/27 02:38:52;;;;;;;8.80;7.90;;;7.20;99.90;;;7.94;92.89;97024.94;10346028;28;20231;-67
2024/02/27 02:43:55;;;;;;;8.93;8.10;;;7.40;99.90;;;7.67;94.67;97025.22;10349073;28;20234;-68
2024/02/27 02:49:01;;;;;;;8.87;8.03;;;7.20;99.90;;;7.75;94.25;97037.44;10348596;28;20226;-69
2024/02/27 02:54:06;;;;;;;9.13;8.23;;;7.10;99.90;;;7.70;94.89;97041.41;10346638;28;20715;-68
2024/02/27 02:59:09;;;;;;;9.03;7.87;;;7.10;99.90;;;7.75;94.48;97048.50;10349229;28;20230;-68
2024/02/27 03:04:13;;;;;;;9.90;8.87;;;7.10;99.90;;;7.84;91.65;97051.56;10346884;28;20237;-67
2024/02/27 03:09:18;;;;;;;9.70;8.70;;;7.10;99.90;;;7.73;91.09;97057.72;10344596;28;20233;-68
2024/02/27 03:14:21;;;;;;;10.73;9.63;;;7.10;99.90;;;7.61;89.51;97055.38;10346455;28;20677;-68
2024/02/27 03:19:25;;;;;;;10.40;9.30;;;7.00;99.90;;;7.52;91.05;97057.41;10347526;28;20826;-68
2024/02/27 03:24:31;;;;;;;11.23;10.10;;;6.90;99.90;;;7.50;90.10;97064.09;10344155;28;20231;-68
2024/02/27 03:29:35;;;;;;;11.87;9.50;;;6.90;99.90;;;7.78;88.09;97065.59;10345663;28;20313;-68
2024/02/27 03:34:38;;;;;;;11.33;9.93;;;7.10;99.90;;;7.49;89.52;97067.41;10347323;28;21540;-68
2024/02/27 03:39:43;;;;;;;10.83;9.70;;;7.00;99.90;;;7.51;90.53;97070.03;10346137;28;20602;-67
2024/02/27 03:44:46;;;;;;;12.63;10.53;;;6.90;99.90;;;7.56;89.21;97066.09;10345582;28;20843;-68
2024/02/27 03:49:49;;;;;;;12.30;10.70;;;7.00;99.90;;;7.51;88.83;97070.91;10346937;28;20284;-69
2024/02/27 03:54:54;;;;;;;12.93;11.57;;;7.00;99.90;;;7.49;89.45;97071.63;10345031;28;20226;-69
2024/02/27 03:59:57;;;;;;;15.43;11.53;;;6.90;99.90;;;7.31;88.65;97072.34;10345432;28;20785;-68
2024/02/27 04:05:00;;;;;;;13.13;11.67;;;6.80;99.90;;;7.55;88.23;97077.91;10346203;28;20729;-68
2024/02/27 04:10:07;;;;;;;14.10;11.47;;;6.90;99.90;;;7.54;86.56;97081.25;10342999;28;20226;-69
2024/02/27 04:15:10;;;;;;;12.57;11.27;;;7.00;99.90;;;7.47;87.02;97078.28;10344032;28;20308;-69
2024/02/27 04:20:14;;;;;;;13.20;10.83;;;6.90;99.90;;;7.46;86.71;97092.66;10344620;28;20365;-68
2024/02/27 04:25:18;;;;;;;13.47;11.70;;;6.90;99.90;;;7.54;87.50;97100.72;10340284;28;20230;-67
2024/02/27 04:30:22;;;;;;;12.03;10.70;;;6.90;99.90;;;7.41;88.88;97114.41;10345033;28;20317;-68
2024/02/27 04:35:25;;;;;;;13.73;11.93;;;6.80;99.90;;;7.52;88.46;97118.41;10343585;28;21895;-68
2024/02/27 04:40:30;;;;;;;14.27;12.77;;;6.80;99.90;;;7.47;87.29;97130.03;10343844;28;20234;-68
2024/02/27 04:45:33;;;;;;;14.87;12.27;;;6.80;99.90;;;7.61;86.62;97121.50;10341690;28;20230;-69
2024/02/27 04:50:36;;;;;;;15.60;12.97;;;6.90;99.90;;;7.33;87.26;97136.84;10344720;28;20289;-68
2024/02/27 04:55:40;;;;;;;14.30;12.80;;;6.80;99.90;;;7.44;86.56;97150.19;10342079;28;20242;-68
2024/02/27 05:00:44;;;;;;;15.77;12.10;;;6.80;99.90;;;7.35;87.73;97154.72;10343447;28;20226;-68
2024/02/27 05:05:47;;;;;;;15.50;12.73;;;6.80;99.90;;;7.31;87.06;97161.28;10344545;28;20651;-68
2024/02/27 05:10:51;;;;;;;14.43;12.20;;;6.70;99.90;;;7.31;87.47;97174.00;10342195;28;20226;-68
2024/02/27 05:15:55;;;;;;;14.70;12.77;;;6.70;99.90;;;7.43;86.47;97166.22;10344690;28;20227;-68
2024/02/27 05:20:58;;;;;;;15.67;13.60;;;6.80;99.90;;;7.26;86.81;97172.00;10342199;28;20245;-68
2024/02/27 05:26:03;;;;;;;15.33;12.80;;;6.70;99.90;;;7.43;87.57;97186.56;10344329;28;20254;-68
2024/02/27 05:31:24;;;;;;;14.13;12.53;;;6.70;99.90;;;7.44;86.76;97190.88;10345778;28;20234;-69
2024/02/27 05:36:29;;;;;;;14.90;12.87;;;6.70;99.90;;;7.31;87.19;97193.47;10343298;28;20233;-69
2024/02/27 05:41:33;;;;;;;17.13;13.57;;;6.70;99.90;;;7.38;86.89;97195.56;10346750;28;20234;-69
2024/02/27 05:46:36;;;;;;;16.90;13.60;;;6.70;99.90;;;7.39;87.90;97207.50;10346736;28;20226;-69
2024/02/27 05:51:40;;;;;;;16.10;13.37;;;6.70;99.90;;;7.41;86.64;97213.53;10345655;28;20265;-69
2024/02/27 05:56:45;;;;;;;17.23;13.90;;;6.80;99.90;;;7.30;86.86;97224.78;10342878;28;20925;-69
2024/02/27 06:01:48;;;;;;;18.07;14.33;;;6.60;99.90;;;7.32;86.67;97231.66;10346130;28;20281;-69
2024/02/27 06:06:51;;;;;;;17.10;14.13;;;6.70;99.90;;;7.22;87.18;97234.47;10350812;28;20230;-69
2024/02/27 06:11:56;;;;;;;16.20;13.80;;;6.70;99.90;;;7.25;87.22;97246.50;10358040;28;20722;-69
2024/02/27 06:17:01;;;;;;;18.93;16.07;;;6.60;99.90;;;7.30;87.39;97258.69;10354539;28;20226;-68
2024/02/27 06:22:15;;;;;;;18.27;15.37;;;6.70;99.90;;;7.26;87.25;97256.72;10355043;28;20234;-69
2024/02/27 06:27:20;;;;;;;19.37;15.27;;;6.70;99.90;;;7.27;87.20;97265.22;10352564;28;20237;-68
2024/02/27 06:32:23;;;;;;;17.80;15.50;;;6.70;99.90;;;7.19;87.46;97273.28;10347159;28;20234;-69
2024/02/27 06:37:27;;;;;;;18.20;15.70;;;6.60;99.90;;;7.28;88.65;97289.88;10351114;28;20332;-68
2024/02/27 06:42:36;;;;;;;17.80;15.87;;;6.70;99.90;;;7.38;88.25;97295.63;10352767;28;20317;-71
2024/02/27 06:47:42;;;;;;;19.43;16.80;;;6.70;99.90;;;7.39;87.42;97293.94;10351651;28;20241;-69
2024/02/27 06:52:45;;;;;;;18.37;15.73;;;6.70;99.90;;;7.49;87.09;97308.06;10349847;28;20226;-68
2024/02/27 06:57:50;;;;;;;20.47;16.47;;;6.70;99.90;;;7.49;87.33;97311.50;10350473;28;20710;-70
2024/02/27 07:02:53;;;;;;;21.13;16.77;;;6.70;99.90;;;7.51;86.14;97312.47;10349501;28;20326;-68
2024/02/27 07:07:56;;;;;;;18.67;15.67;;;6.80;99.90;;;7.50;87.15;97313.25;10351981;28;20232;-69
2024/02/27 07:13:01;;;;;;;18.97;16.73;;;6.80;99.90;;;7.42;87.91;97305.16;10356586;28;20335;-69
2024/02/27 07:18:05;;;;;;;22.23;17.40;;;6.80;99.90;;;7.49;88.18;97301.31;10356568;28;20709;-69
2024/02/27 07:23:08;;;;;;;23.20;18.70;;;6.80;99.90;;;7.33;88.72;97311.38;10354729;28;20227;-69
2024/02/27 07:28:13;;;;;;;21.10;18.07;;;6.70;99.90;;;7.44;89.29;97321.41;10355344;28;20230;-69
2024/02/27 07:33:26;;;;;;;20.83;18.33;;;6.80;99.90;;;7.54;87.57;97322.81;10355070;28;20336;-69
2024/02/27 07:38:29;;;;;;;22.17;18.53;;;6.90;99.90;;;7.35;89.74;97328.44;10354826;28;20237;-69
2024/02/27 07:43:34;;;;;;;27.27;20.00;;;6.80;99.90;;;7.31;90.65;97326.53;10354473;28;20237;-68
2024/02/27 07:48:37;;;;;;;25.43;19.57;;;6.80;99.90;;;7.53;89.90;97322.75;10347016;28;20222;-71
2024/02/27 07:53:40;;;;;;;26.37;21.20;;;6.90;99.90;;;7.52;91.72;97310.81;10354181;28;20313;-68
2024/02/27 07:58:45;;;;;;;23.80;19.90;;;7.00;99.90;;;7.61;89.87;97319.88;10349339;28;20226;-68
2024/02/27 08:03:48;;;;;;;25.67;20.17;;;7.00;99.90;;;7.58;91.24;97319.69;10348863;28;20230;-69
2024/02/27 08:08:52;;;;;;;24.23;20.67;;;7.00;99.90;;;7.83;90.62;97328.75;10347137;28;20223;-69
2024/02/27 08:13:57;;;;;;;22.27;19.63;;;7.10;99.90;;;7.84;89.16;97333.94;10350014;28;20257;-69
2024/02/27 08:19:04;;;;;;;21.93;19.10;;;7.20;99.90;;;8.02;90.20;97341.78;10349682;28;20714;-69
2024/02/27 08:24:11;;;;;;;21.80;19.10;;;7.30;99.90;;;8.02;90.13;97351.09;10350855;28;20241;-70
2024/02/27 08:29:16;;;;;;;22.13;19.43;;;7.40;99.90;;;8.16;89.71;97349.34;10348815;28;20322;-69
2024/02/27 08:34:19;;;;;;;22.73;19.23;;;7.50;99.90;;;8.30;89.52;97351.03;10348999;28;20234;-71
2024/02/27 08:39:23;;;;;;;21.83;19.10;;;7.60;99.90;;;8.25;87.56;97348.19;10349093;28;20341;-69
2024/02/27 08:44:27;;;;;;;22.33;18.43;;;7.60;99.90;;;8.09;88.37;97351.50;10344941;28;20365;-69
2024/02/27 08:49:31;;;;;;;21.70;17.57;;;7.50;99.90;;;8.25;88.05;97348.19;10350536;28;20722;-70
2024/02/27 08:54:34;;;;;;;18.80;16.87;;;7.60;99.90;;;8.17;88.66;97348.53;10344798;28;20229;-69
2024/02/27 08:59:43;;;;;;;19.20;15.97;;;7.70;99.90;;;8.30;87.06;97353.56;10346804;28;20231;-70
2024/02/27 09:04:46;;;;;;;18.43;16.30;;;7.80;99.90;;;8.17;89.30;97349.41;10346003;28;20313;-70
2024/02/27 09:09:49;;;;;;;19.50;16.80;;;7.70;99.90;;;8.17;90.23;97358.72;10344421;28;20246;-71
2024/02/27 09:14:54;;;;;;;20.80;17.13;;;7.70;99.90;;;8.37;89.58;97370.94;10345119;28;20230;-70
2024/02/27 09:19:57;;;;;;;21.33;17.33;;;7.80;99.90;;;8.23;90.47;97372.69;10346320;28;20839;-70
2024/02/27 09:25:01;;;;;;;18.43;16.50;;;7.70;99.90;;;8.16;91.58;97378.22;10343558;28;20237;-71
2024/02/27 09:30:07;;;;;;;19.60;16.90;;;7.70;99.90;;;8.33;90.62;97376.66;10345588;28;20496;-69
2024/02/27 09:35:10;;;;;;;17.10;15.33;;;7.80;99.90;;;8.49;90.51;97380.97;10345228;28;20602;-70
2024/02/27 09:40:14;;;;;;;18.50;16.17;;;7.90;99.90;;;8.59;89.93;97367.97;10341486;28;21780;-69
2024/02/27 09:45:21;;;;;;;18.23;15.73;;;8.00;99.90;;;8.55;88.89;97366.91;10356639;28;20226;-69
2024/02/27 09:50:27;;;;;;;18.40;15.37;;;8.00;99.90;;;8.49;88.62;97356.38;10352287;28;20234;-69
2024/02/27 09:55:30;;;;;;;17.87;15.43;;;8.00;99.90;;;8.82;89.34;97356.53;10352704;28;20308;-70
2024/02/27 10:00:35;;;;;;;18.10;16.20;;;8.20;99.90;;;8.96;88.67;97370.91;10353512;28;20746;-69
2024/02/27 10:05:40;;;;;;;18.10;16.20;;;8.40;99.90;;;8.90;86.24;97364.56;10351799;28;21059;-70
2024/02/27 10:10:45;;;;;;;18.53;15.77;;;8.40;99.90;;;9.20;86.39;97361.16;10352719;28;20230;-70
2024/02/27 10:15:49;;;;;;;18.00;16.07;;;8.60;99.90;;;9.50;85.46;97365.25;10353707;28;20241;-70
2024/02/27 10:20:52;;;;;;;19.40;16.97;;;8.80;99.90;;;9.82;85.71;97367.84;10352061;28;20229;-69
2024/02/27 10:26:08;;;;;;;19.85;17.15;;;9.10;99.90;;;10.01;84.16;97376.44;10352744;28;20240;-70
2024/02/27 10:31:13;;;;;;;19.33;16.40;;;9.20;99.90;;;10.06;83.35;97382.66;10344911;28;20275;-70
2024/02/27 10:36:18;;;;;;;20.02;16.83;;;9.20;99.90;;;9.97;82.41;97394.97;10346105;28;20622;-70
2024/02/27 10:41:21;;;;;;;19.67;17.40;;;9.20;99.90;;;9.80;82.67;97392.41;10354202;28;20597;-70
2024/02/27 10:46:26;;;;;;;19.88;17.70;;;9.10;99.90;;;9.76;81.38;97387.94;10352313;28;22188;-70
2024/02/27 10:51:30;;;;;;;19.50;16.80;;;9.10;99.90;;;10.19;79.60;97397.81;10354026;28;20227;-70
2024/02/27 10:56:34;;;;;;;18.67;16.30;;;9.40;99.90;;;10.29;78.80;97414.50;10347576;28;20305;-70
2024/02/27 11:01:42;;;;;;;19.52;16.58;;;9.60;99.90;;;10.58;78.19;97413.41;10349162;28;20317;-70
2024/02/27 11:06:51;;;;;;;18.55;16.40;;;9.80;99.90;;;10.55;78.25;97408.16;10349405;28;20265;-70
2024/02/27 11:12:00;;;;;;;17.17;15.35;;;9.90;99.90;;;10.47;78.05;97410.34;10351317;28;20226;-70
2024/02/27 11:17:11;;;;;;;17.30;14.93;;;9.70;99.90;;;10.64;79.19;97411.16;10352349;28;20613;-71
2024/02/27 11:22:17;;;;;;;19.63;17.02;;;10.00;99.90;;;10.75;77.28;97402.34;10352407;28;20234;-70
2024/02/27 11:27:23;;;;;;;19.10;17.08;;;10.10;99.90;;;10.82;77.49;97404.41;10347533;28;20234;-69
2024/02/27 11:32:28;;;;;;;20.08;17.80;;;10.00;99.90;;;10.85;78.36;97401.13;10348049;28;20246;-71
2024/02/27 11:37:32;;;;;;;18.27;16.15;;;10.30;99.90;;;10.82;77.22;97401.84;10351600;28;20234;-71
2024/02/27 11:42:40;;;;;;;21.08;17.63;;;10.20;99.90;;;10.78;76.52;97399.94;10351497;28;20749;-70
2024/02/27 11:47:51;;;;;;;18.88;16.92;;;10.20;99.90;;;10.58;76.40;97387.84;10338272;28;20681;-70
2024/02/27 11:52:55;;;;;;;21.02;18.73;;;10.10;99.90;;;10.58;76.65;97385.31;10334408;28;20703;-70
2024/02/27 11:58:01;;;;;;;19.63;17.52;;;10.20;99.90;;;10.40;76.20;97377.63;10336504;28;20392;-70
2024/02/27 12:03:07;;;;;;;19.13;16.80;;;10.10;99.90;;;10.74;76.20;97385.25;10333611;28;20661;-70
2024/02/27 12:08:10;;;;;;;20.13;16.95;;;10.30;99.90;;;10.50;76.90;97386.59;10334983;28;20238;-71
2024/02/27 12:13:15;;;;;;;21.10;17.60;;;10.20;99.90;;;11.02;75.94;97369.56;10336560;28;20230;-70
2024/02/27 12:18:20;;;;;;;18.48;16.00;;;10.40;99.90;;;11.22;74.72;97380.72;10334326;28;20537;-71
2024/02/27 12:23:24;;;;;;;16.77;15.07;;;10.60;99.90;;;11.46;73.76;97380.97;10334373;28;21044;-71
2024/02/27 12:28:28;;;;;;;18.52;15.70;;;10.80;99.90;;;11.60;70.33;97379.03;10333795;28;20237;-71
2024/02/27 12:33:33;;;;;;;15.85;13.77;;;11.00;99.90;;;11.63;72.84;97376.63;10340554;28;20574;-70
2024/02/27 12:38:37;;;;;;;18.17;15.45;;;11.00;99.90;;;11.53;70.67;97382.13;10335621;28;20237;-70
2024/02/27 12:43:40;;;;;;;16.80;14.88;;;10.90;99.90;;;11.47;71.54;97381.84;10334069;28;20939;-71
2024/02/27 12:48:45;;;;;;;16.17;14.43;;;10.80;99.90;;;11.24;71.65;97373.97;10336924;28;20238;-70
2024/02/27 12:53:50;;;;;;;16.77;14.88;;;10.70;99.90;;;11.45;71.67;97376.66;10335339;28;20246;-71
2024/02/27 12:58:55;;;;;;;15.75;14.13;;;10.90;99.90;;;11.48;70.31;97375.94;10332896;28;20368;-71
2024/02/27 13:03:59;;;;;;;17.23;15.32;;;11.00;99.90;;;11.41;69.44;97350.88;10335346;28;20230;-71
2024/02/27 13:09:03;;;;;;;17.35;15.07;;;10.90;99.90;;;11.59;70.27;97353.38;10332573;28;20620;-71
2024/02/27 13:14:07;;;;;;;17.80;15.60;;;11.00;99.90;;;11.50;69.38;97346.16;10329879;28;20234;-71
2024/02/27 13:19:11;;;;;;;15.30;13.48;;;11.10;99.90;;;11.78;69.39;97329.47;10333288;28;20238;-70
2024/02/27 13:24:15;;;;;;;15.65;14.07;;;11.20;99.90;;;12.05;67.15;97325.56;10333660;28;21278;-71
2024/02/27 13:29:18;;;;;;;16.85;14.65;;;11.50;99.90;;;11.97;66.23;97324.38;10334318;28;20721;-71
2024/02/27 13:34:23;;;;;;;15.25;13.75;;;11.50;99.90;;;12.16;67.03;97326.91;10331565;28;20784;-71
2024/02/27 13:39:26;;;;;;;17.08;14.00;;;11.50;99.90;;;11.93;66.02;97319.91;10333529;28;20854;-71
2024/02/27 13:44:29;;;;;;;15.85;14.23;;;11.40;99.90;;;11.72;67.49;97322.38;10332705;28;20256;-71
2024/02/27 13:49:34;;;;;;;17.23;14.25;;;11.20;99.90;;;11.67;67.92;97313.63;10336940;28;20234;-71
2024/02/27 13:54:38;;;;;;;17.17;14.52;;;11.10;99.90;;;11.82;67.83;97316.88;10335487;28;20636;-70
2024/02/27 13:59:41;;;;;;;16.50;14.18;;;11.30;99.90;;;12.00;68.97;97323.63;10334723;28;20317;-71
2024/02/27 14:04:46;;;;;;;23.75;20.15;;;11.30;99.90;;;12.11;70.22;97323.28;10335317;28;20636;-71
2024/02/27 14:09:49;;;;;;;22.08;19.77;;;11.40;99.90;;;11.83;71.39;97320.31;10337415;28;20234;-71
2024/02/27 14:14:53;;;;;;;24.73;20.90;;;11.20;99.90;;;11.69;72.66;97323.13;10336459;28;20231;-71
2024/02/27 14:19:57;;;;;;;24.25;21.73;;;11.00;99.90;;;11.43;73.78;97321.09;10335844;28;20238;-70
2024/02/27 14:25:03;;;;;;;26.70;20.77;;;10.80;99.90;;;11.50;73.95;97329.13;10332005;28;20253;-70
2024/02/27 14:30:08;;;;;;;25.38;21.27;;;10.80;99.90;;;11.55;72.89;97337.00;10337599;28;20253;-70
2024/02/27 14:35:13;;;;;;;25.02;21.48;;;10.90;99.90;;;11.49;73.80;97336.72;10341235;28;20234;-71
2024/02/27 14:40:16;;;;;;;24.92;21.67;;;10.80;99.90;;;11.52;73.10;97344.53;10348288;28;20840;-70
2024/02/27 14:45:20;;;;;;;22.73;20.30;;;10.90;99.90;;;11.39;73.68;97353.38;10347493;28;20232;-71
2024/02/27 14:50:24;;;;;;;25.13;21.45;;;10.80;99.90;;;11.37;74.11;97360.09;10347477;28;20308;-70
2024/02/27 14:55:28;;;;;;;24.83;20.23;;;10.80;99.90;;;11.33;73.57;97362.44;10346386;28;20242;-70
2024/02/27 15:00:31;;;;;;;20.77;18.33;;;10.80;99.90;;;11.39;73.52;97367.81;10347734;28;20230;-71
2024/02/27 15:05:35;;;;;;;22.00;18.35;;;10.70;99.90;;;11.40;73.14;97375.59;10346954;28;20250;-70
2024/02/27 15:10:39;;;;;;;20.23;17.77;;;10.70;99.90;;;11.36;73.75;97383.03;10349020;28;20223;-71
2024/02/27 15:15:42;;;;;;;21.30;18.02;;;10.70;99.90;;;11.43;73.97;97390.19;10348208;28;20226;-71
2024/02/27 15:20:46;;;;;;;23.38;19.70;;;10.70;99.90;;;11.33;73.41;97404.25;10349724;28;20231;-70
2024/02/27 15:25:50;;;;;;;20.23;17.85;;;10.60;99.90;;;11.19;72.67;97424.06;10336290;28;20223;-72
2024/02/27 15:30:53;;;;;;;20.33;17.42;;;10.50;99.90;;;11.13;73.23;97426.34;10331483;28;20222;-71
2024/02/27 15:35:58;;;;;;;21.48;18.10;;;10.40;99.90;;;11.13;73.90;97431.47;10336653;28;20226;-71
2024/02/27 15:41:02;;;;;;;21.92;18.48;;;10.40;99.90;;;11.12;73.76;97439.06;10334655;28;20232;-71
2024/02/27 15:46:09;;;;;;;20.15;16.65;;;10.40;99.90;;;11.14;74.15;97443.44;10335354;28;20297;-70
2024/02/27 15:51:14;;;;;;;19.88;17.35;;;10.40;99.90;;;11.11;75.62;97450.09;10337167;28;20237;-71
2024/02/27 15:56:17;;;;;;;19.85;17.70;;;10.40;99.90;;;11.10;75.33;97444.06;10334423;28;20751;-71
2024/02/27 16:01:21;;;;;;;23.30;18.58;;;10.30;99.90;;;11.11;76.33;97453.53;10336319;28;20712;-70
2024/02/27 16:06:31;;;;;;;21.80;19.05;;;10.30;99.90;;;11.09;75.95;97456.81;10333335;28;20605;-71
2024/02/27 16:11:34;;;;;;;21.45;19.13;;;10.30;99.90;;;11.01;76.21;97466.66;10336631;28;20608;-71
2024/02/27 16:16:38;;;;;;;20.95;18.75;;;10.20;99.90;;;10.95;75.99;97462.13;10334721;28;20233;-71
2024/02/27 16:21:43;;;;;;;20.70;17.23;;;10.20;99.90;;;10.93;75.44;97463.75;10335772;28;20607;-71
2024/02/27 16:26:47;;;;;;;18.00;16.17;;;10.10;99.90;;;10.95;76.28;97466.34;10334668;28;20233;-71
2024/02/27 16:31:50;;;;;;;18.58;16.58;;;10.10;99.90;;;10.71;76.75;97482.25;10336305;28;20245;-71
2024/02/27 16:36:55;;;;;;;21.80;19.40;;;10.00;99.90;;;10.69;77.00;97481.28;10336794;28;20233;-71
2024/02/27 16:41:58;;;;;;;20.52;16.85;;;9.90;99.90;;;10.57;76.65;97488.34;10336880;28;20245;-70
2024/02/27 16:47:02;;;;;;;19.65;16.23;;;9.80;99.90;;;10.51;77.60;97493.13;10335479;28;21005;-71
2024/02/27 16:52:07;;;;;;;18.80;16.58;;;9.70;99.90;;;10.46;78.74;97492.03;10331702;28;20252;-71
2024/02/27 16:57:10;;;;;;;20.65;18.45;;;9.70;99.90;;;10.41;78.79;97496.00;10342110;28;20752;-72
2024/02/27 17:02:13;;;;;;;19.80;16.58;;;9.60;99.90;;;10.28;80.18;97499.63;10338131;28;20234;-71
2024/02/27 17:07:19;;;;;;;20.25;17.23;;;9.50;99.90;;;10.20;78.99;97501.72;10333410;28;20613;-71
2024/02/27 17:12:23;;;;;;;21.42;16.67;;;9.40;99.90;;;10.10;80.03;97491.81;10331736;28;20234;-71
2024/02/27 17:17:26;;;;;;;18.40;16.35;;;9.30;99.90;;;10.04;79.95;97504.25;10330252;28;20222;-70
2024/02/27 17:22:30;;;;;;;17.20;15.35;;;9.30;99.90;;;10.07;80.15;97504.41;10328459;28;20258;-71
2024/02/27 17:27:34;;;;;;;21.20;16.63;;;9.30;99.90;;;9.96;81.33;97511.53;10328538;28;20238;-71
2024/02/27 17:32:37;;;;;;;18.45;16.52;;;9.20;99.90;;;9.87;80.89;97526.31;10327720;28;20226;-71
2024/02/27 17:37:41;;;;;;;20.13;17.63;;;9.10;99.90;;;9.86;81.13;97530.56;10329595;28;20245;-71
2024/02/27 17:42:45;;;;;;;19.63;17.73;;;9.10;99.90;;;9.81;81.95;97547.28;10332564;28;20860;-71
2024/02/27 17:47:53;;;;;;;19.83;17.55;;;9.10;99.90;;;9.79;83.13;97548.91;10335523;28;20325;-71
2024/02/27 17:53:02;;;;;;;25.75;20.75;;;9.00;99.90;;;9.75;83.36;97552.06;10316164;28;21063;-71
2024/02/27 17:58:06;;;;;;;24.13;21.58;;;9.00;99.90;;;9.74;83.25;97555.41;10333293;28;20226;-71
2024/02/27 18:03:09;;;;;;;22.45;19.98;;;8.90;99.90;;;9.69;84.04;97551.72;10324724;28;20265;-71
2024/02/27 18:08:14;;;;;;;18.83;16.85;;;8.90;99.90;;;9.62;84.89;97554.75;10337111;28;20265;-71
2024/02/27 18:13:18;;;;;;;18.08;15.20;;;8.80;99.90;;;9.57;84.48;97558.72;10345131;28;20227;-71
2024/02/27 18:18:22;;;;;;;18.70;15.77;;;8.70;99.90;;;9.51;85.22;97560.94;10347436;28;20237;-71
2024/02/27 18:23:27;;;;;;;18.45;16.02;;;8.70;99.90;;;9.55;85.52;97561.16;10343862;28;20229;-71
2024/02/27 18:28:30;;;;;;;18.20;15.27;;;8.70;99.90;;;9.46;85.87;97569.19;10341749;28;20724;-71
2024/02/27 18:33:34;;;;;;;20.10;16.55;;;8.70;99.90;;;9.40;86.59;97573.06;10346996;28;20622;-71
2024/02/27 18:38:39;;;;;;;21.80;17.13;;;8.60;99.90;;;9.36;87.47;97587.31;10343823;28;20226;-71
2024/02/27 18:43:42;;;;;;;22.67;19.50;;;8.60;99.90;;;9.31;87.48;97598.94;10346928;28;20768;-71
2024/02/27 18:48:46;;;;;;;22.98;19.30;;;8.50;99.90;;;9.33;89.05;97602.44;10343170;28;20230;-71
2024/02/27 18:53:51;;;;;;;19.73;16.42;;;8.50;99.90;;;9.29;89.46;97608.16;10345548;28;20824;-71
2024/02/27 18:58:59;;;;;;;19.63;16.20;;;8.40;99.90;;;9.18;90.04;97614.28;10344817;28;20233;-71
2024/02/27 19:04:03;;;;;;;21.17;18.48;;;8.30;99.90;;;9.11;90.47;97609.66;10345326;28;20726;-71
2024/02/27 19:09:07;;;;;;;20.65;18.05;;;8.20;99.90;;;8.97;91.76;97627.53;10340099;28;20595;-71
2024/02/27 19:14:11;;;;;;;22.40;19.00;;;8.20;99.90;;;8.92;91.26;97631.47;10341954;28;20231;-71
2024/02/27 19:19:14;;;;;;;23.10;19.50;;;8.10;99.90;;;8.89;91.13;97633.84;10344492;28;20230;-71
2024/02/27 19:24:19;;;;;;;22.60;20.00;;;8.10;99.90;;;8.82;92.61;97631.75;10343140;28;20234;-71
2024/02/27 19:29:23;;;;;;;26.13;22.87;;;8.00;99.90;;;8.71;92.46;97641.28;10347700;28;20282;-71
2024/02/27 19:34:26;;;;;;;25.27;22.23;;;7.90;99.90;;;8.64;92.01;97646.81;10342157;28;20241;-71
2024/02/27 19:39:30;;;;;;;29.83;24.50;;;7.80;99.90;;;8.57;92.97;97655.72;10340880;28;20718;-71
2024/02/27 19:44:33;;;;;;;25.70;22.90;;;7.80;99.90;;;8.52;93.28;97652.00;10341471;28;20226;-71
2024/02/27 19:49:36;;;;;;;30.03;23.47;;;7.70;99.90;;;8.49;93.30;97662.00;10342688;28;20241;-71
2024/02/27 19:54:41;;;;;;;28.97;23.90;;;7.70;99.90;;;8.43;94.36;97670.94;10340842;28;20226;-71
2024/02/27 19:59:45;;;;;;;25.57;22.70;;;7.60;99.90;;;8.36;94.57;97674.75;10339962;28;20230;-71
2024/02/27 20:04:49;;;;;;;33.63;27.70;;;7.50;99.90;;;8.32;94.24;97678.75;10339149;28;20226;-71
2024/02/27 20:09:54;;;;;;;53.80;47.97;;;7.40;99.90;;;8.24;95.05;97684.16;10341305;28;20235;-71
2024/02/27 20:14:57;;;;;;;39.57;34.67;;;7.40;99.90;;;8.18;94.90;97684.63;10342666;28;20230;-70
2024/02/27 20:20:00;;;;;;;29.53;26.40;;;7.40;99.90;;;8.16;95.42;97691.31;10340570;28;22246;-71
2024/02/27 20:25:06;;;;;;;24.10;20.23;;;7.40;99.90;;;8.07;95.56;97688.19;10337988;28;20253;-71
2024/02/27 20:30:10;;;;;;;21.30;18.57;;;7.30;99.90;;;8.16;95.61;97693.00;10338191;28;20226;-71
2024/02/27 20:35:14;;;;;;;27.97;23.93;;;7.40;99.90;;;8.32;95.14;97698.25;10341907;28;20230;-71
2024/02/27 20:40:18;;;;;;;23.03;20.37;;;7.40;99.90;;;8.23;96.79;97712.94;10331053;28;20231;-71
2024/02/27 20:45:22;;;;;;;25.23;20.70;;;7.40;99.90;;;8.18;97.52;97712.63;10333514;28;20241;-71
2024/02/27 20:50:26;;;;;;;23.93;20.63;;;7.40;99.90;;;8.19;97.76;97721.19;10339172;28;20230;-71
2024/02/27 20:55:30;;;;;;;23.20;20.33;;;7.40;99.90;;;8.17;98.12;97723.63;10339872;28;20254;-71
2024/02/27 21:00:33;;;;;;;24.97;20.17;;;7.40;99.90;;;8.19;97.54;97737.34;10342710;28;20732;-71